Time;durP1;ratioP1;P1;durP2;ratioP2;P2;SDS_P1;SDS_P2;PMS_P1;PMS_P2;Temp;Humidity;BMP_temperature;BMP_pressure;BME280_temperature;BME280_humidity;BME280_pressure;Samples;Min_cycle;Max_cycle;Signal;HPM_P1;HPM_P2
2022/09/11 00:01:06;;;;;;;27.13;14.15;;;13.80;99.90;;;;;;5053903;28;20105;-80
2022/09/11 00:03:33;;;;;;;31.50;15.57;;;13.80;99.90;;;;;;5070742;28;20050;-80
2022/09/11 00:06:08;;;;;;;27.55;14.43;;;13.80;99.90;;;;;;5070650;28;20044;-80
2022/09/11 00:08:34;;;;;;;30.70;15.95;;;13.80;99.90;;;;;;5054122;28;20048;-80
2022/09/11 00:11:11;;;;;;;30.15;15.52;;;13.80;99.90;;;;;;5071094;28;20040;-80
2022/09/11 00:13:39;;;;;;;29.45;14.77;;;13.80;99.90;;;;;;5070958;28;20090;-80
2022/09/11 00:16:07;;;;;;;33.45;17.55;;;13.70;99.90;;;;;;5054336;28;20055;-80
2022/09/11 00:18:34;;;;;;;36.55;17.48;;;13.70;99.90;;;;;;5071382;28;20111;-80
2022/09/11 00:21:02;;;;;;;32.05;15.45;;;13.80;99.90;;;;;;5070626;28;20508;-80
2022/09/11 00:23:28;;;;;;;36.90;16.83;;;13.70;99.90;;;;;;5053642;28;20041;-80
2022/09/11 00:25:53;;;;;;;34.78;17.98;;;13.70;99.90;;;;;;5071257;28;20040;-80
2022/09/11 00:28:23;;;;;;;33.03;16.25;;;13.70;99.90;;;;;;5070405;28;20048;-80
2022/09/11 00:31:06;;;;;;;32.45;16.80;;;13.80;99.90;;;;;;5053441;28;20076;-80
2022/09/11 00:33:32;;;;;;;33.45;16.80;;;13.70;99.90;;;;;;5070110;28;20072;-80
2022/09/11 00:36:04;;;;;;;33.92;17.58;;;13.70;99.90;;;;;;5070194;28;20037;-80
2022/09/11 00:38:34;;;;;;;33.47;16.92;;;13.80;99.90;;;;;;5053921;28;20059;-80
2022/09/11 00:41:01;;;;;;;33.38;16.70;;;13.70;99.90;;;;;;5053987;28;20055;-80
2022/09/11 00:43:28;;;;;;;35.53;15.77;;;13.60;99.90;;;;;;5053701;28;20040;-80
2022/09/11 00:46:02;;;;;;;29.52;16.02;;;13.70;99.90;;;;;;5070112;28;20048;-80
2022/09/11 00:48:32;;;;;;;31.08;16.55;;;13.60;99.90;;;;;;5071281;28;20408;-80
2022/09/11 00:51:02;;;;;;;32.20;16.13;;;13.60;99.90;;;;;;5071110;28;20043;-80
2022/09/11 00:53:30;;;;;;;34.47;17.92;;;13.60;99.90;;;;;;5071129;28;20480;-80
2022/09/11 00:56:00;;;;;;;32.25;15.68;;;13.60;99.90;;;;;;5069859;28;20048;-79
2022/09/11 00:58:31;;;;;;;33.08;15.65;;;13.50;99.90;;;;;;5070952;28;20062;-79
2022/09/11 01:00:56;;;;;;;34.08;16.45;;;13.40;99.90;;;;;;5069979;28;20120;-79
2022/09/11 01:03:24;;;;;;;35.10;17.00;;;13.50;99.90;;;;;;5052803;28;20470;-79
2022/09/11 01:05:51;;;;;;;31.85;16.67;;;13.50;99.90;;;;;;5070861;28;20036;-79
2022/09/11 01:08:17;;;;;;;33.53;17.20;;;13.40;99.90;;;;;;5074658;28;20045;-79
2022/09/11 01:11:00;;;;;;;29.38;16.27;;;13.40;99.90;;;;;;5073473;28;20065;-79
2022/09/11 01:13:33;;;;;;;35.13;16.48;;;13.40;99.90;;;;;;5074189;28;20451;-79
2022/09/11 01:16:23;;;;;;;30.60;16.48;;;13.40;99.90;;;;;;5072918;28;20048;-79
2022/09/11 01:19:05;;;;;;;34.08;16.98;;;13.40;99.90;;;;;;5074338;28;20401;-79
2022/09/11 01:21:51;;;;;;;;;;;13.40;99.90;;;;;;5056650;28;20052;-78
2022/09/11 01:24:35;;;;;;;36.50;16.73;;;13.40;99.90;;;;;;5072808;28;19972;-78
2022/09/11 01:27:28;;;;;;;39.33;16.38;;;13.30;99.90;;;;;;5073010;28;20049;-78
2022/09/11 01:30:01;;;;;;;33.22;17.02;;;13.30;99.90;;;;;;5073451;28;20515;-78
2022/09/11 01:32:39;;;;;;;30.52;15.63;;;13.30;99.90;;;;;;5074568;28;20056;-77
2022/09/11 01:35:33;;;;;;;36.67;17.45;;;13.30;99.90;;;;;;5078844;28;20147;-77
2022/09/11 01:38:15;;;;;;;35.40;17.15;;;13.30;99.90;;;;;;5067797;28;20043;-78
2022/09/11 01:40:50;;;;;;;33.67;16.70;;;13.30;99.90;;;;;;5056083;28;20041;-78
2022/09/11 01:43:22;;;;;;;34.95;16.85;;;13.30;99.90;;;;;;5072368;28;20089;-78
2022/09/11 01:45:50;;;;;;;31.60;16.27;;;13.20;99.90;;;;;;5055788;28;20044;-78
2022/09/11 01:48:22;;;;;;;29.30;15.43;;;13.20;99.90;;;;;;5055500;28;20182;-78
2022/09/11 01:50:50;;;;;;;26.75;14.68;;;13.20;99.90;;;;;;5055985;28;20063;-78
2022/09/11 01:53:20;;;;;;;29.10;15.48;;;13.20;99.90;;;;;;5055185;28;20115;-78
2022/09/11 01:56:01;;;;;;;28.02;15.60;;;13.20;99.90;;;;;;5072291;28;20116;-78
2022/09/11 01:58:29;;;;;;;24.95;13.07;;;13.10;99.90;;;;;;5072704;28;20566;-78
2022/09/11 02:01:01;;;;;;;27.38;14.68;;;13.10;99.90;;;;;;5073349;28;20531;-78
2022/09/11 02:03:35;;;;;;;;;;;13.00;99.90;;;;;;5072105;28;20456;-78
2022/09/11 02:06:09;;;;;;;33.13;15.70;;;12.90;99.90;;;;;;5072960;28;19995;-78
2022/09/11 02:08:48;;;;;;;31.55;15.82;;;13.00;99.90;;;;;;5055543;28;20059;-78
2022/09/11 02:11:15;;;;;;;34.28;16.80;;;13.00;99.90;;;;;;5071664;28;20569;-78
2022/09/11 02:14:06;;;;;;;33.85;16.15;;;13.10;99.90;;;;;;5072893;28;20043;-78
2022/09/11 02:16:49;;;;;;;30.85;16.98;;;13.10;99.90;;;;;;5071793;28;20086;-78
2022/09/11 02:19:23;;;;;;;36.95;15.52;;;13.10;99.90;;;;;;5072014;28;20044;-78
2022/09/11 02:21:49;;;;;;;36.42;17.35;;;13.10;99.90;;;;;;5072716;28;20050;-78
2022/09/11 02:24:16;;;;;;;53.28;17.67;;;13.00;99.90;;;;;;5072623;28;20184;-78
2022/09/11 02:26:47;;;;;;;32.75;16.65;;;13.00;99.90;;;;;;5071429;28;20045;-78
2022/09/11 02:29:13;;;;;;;28.55;15.27;;;13.00;99.90;;;;;;5071737;28;20090;-78
2022/09/11 02:31:40;;;;;;;27.17;14.60;;;12.90;99.90;;;;;;5071123;28;20041;-78
2022/09/11 02:34:06;;;;;;;23.13;13.23;;;13.00;99.90;;;;;;5071437;28;20487;-78
2022/09/11 02:36:31;;;;;;;22.70;13.10;;;13.00;99.90;;;;;;5054768;28;20040;-78
2022/09/11 02:39:20;;;;;;;19.23;11.73;;;12.90;99.90;;;;;;5071210;28;20098;-78
2022/09/11 02:42:18;;;;;;;19.90;12.10;;;12.90;99.90;;;;;;5071228;28;20048;-78
2022/09/11 02:45:34;;;;;;;20.23;12.25;;;12.80;99.90;;;;;;5054770;28;20386;-78
2022/09/11 02:48:37;;;;;;;21.40;12.15;;;12.80;99.90;;;;;;5035427;28;20391;-78
2022/09/11 02:51:21;;;;;;;18.98;11.00;;;12.70;99.90;;;;;;5072244;28;20040;-78
2022/09/11 02:54:02;;;;;;;19.15;11.80;;;12.70;99.90;;;;;;5054174;28;20036;-78
2022/09/11 02:56:43;;;;;;;20.83;11.40;;;12.60;99.90;;;;;;5054620;28;20040;-78
2022/09/11 02:59:23;;;;;;;16.70;10.38;;;12.70;99.90;;;;;;5054382;28;20042;-78
2022/09/11 03:01:52;;;;;;;15.52;9.95;;;12.70;99.90;;;;;;5070523;28;20456;-78
2022/09/11 03:04:19;;;;;;;17.52;10.35;;;12.70;99.90;;;;;;5070749;28;20465;-78
2022/09/11 03:06:47;;;;;;;16.80;10.63;;;12.70;99.90;;;;;;5054247;28;20040;-78
2022/09/11 03:09:13;;;;;;;19.52;11.23;;;12.70;99.90;;;;;;5070795;28;20090;-78
2022/09/11 03:11:39;;;;;;;16.58;10.27;;;12.70;99.90;;;;;;5070342;28;20072;-78
2022/09/11 03:14:04;;;;;;;17.33;11.30;;;12.80;99.90;;;;;;5070737;28;20076;-78
2022/09/11 03:16:30;;;;;;;17.58;10.88;;;12.70;99.90;;;;;;5070722;28;20048;-78
2022/09/11 03:18:55;;;;;;;21.58;11.45;;;12.70;99.90;;;;;;5071723;28;20047;-78
2022/09/11 03:21:21;;;;;;;20.77;11.15;;;12.80;99.90;;;;;;5071586;28;20060;-78
2022/09/11 03:23:47;;;;;;;17.15;10.45;;;12.80;99.90;;;;;;5070374;28;20067;-78
2022/09/11 03:26:12;;;;;;;22.02;10.35;;;12.60;99.90;;;;;;5071788;28;20083;-78
2022/09/11 03:28:38;;;;;;;18.40;11.30;;;12.70;99.90;;;;;;5070390;28;20036;-78
2022/09/11 03:31:05;;;;;;;14.65;8.93;;;12.70;99.90;;;;;;5070094;28;20078;-78
2022/09/11 03:33:30;;;;;;;14.40;10.10;;;12.60;99.90;;;;;;5071204;28;20033;-78
2022/09/11 03:35:56;;;;;;;16.35;10.85;;;12.60;99.90;;;;;;5071742;28;20508;-78
2022/09/11 03:38:22;;;;;;;15.07;9.32;;;12.50;99.90;;;;;;5070681;28;20412;-78
2022/09/11 03:40:47;;;;;;;25.92;9.60;;;12.50;99.90;;;;;;5070332;28;20040;-78
2022/09/11 03:43:15;;;;;;;12.63;8.82;;;12.40;99.90;;;;;;5053065;28;20040;-78
2022/09/11 03:45:41;;;;;;;11.80;8.52;;;12.40;99.90;;;;;;5070084;28;20048;-78
2022/09/11 03:48:07;;;;;;;12.57;8.43;;;12.40;99.90;;;;;;5071330;28;20469;-78
2022/09/11 03:50:33;;;;;;;13.10;8.32;;;12.20;99.90;;;;;;5071420;28;20037;-78
2022/09/11 03:52:58;;;;;;;12.05;8.02;;;12.40;99.90;;;;;;5069918;28;20041;-78
2022/09/11 03:55:24;;;;;;;14.40;8.32;;;12.30;99.90;;;;;;5071453;28;20066;-78
2022/09/11 03:57:50;;;;;;;11.13;7.88;;;12.30;99.90;;;;;;5071307;28;20370;-78
2022/09/11 04:00:15;;;;;;;13.32;8.55;;;12.20;99.90;;;;;;5070067;28;20045;-78
2022/09/11 04:02:41;;;;;;;13.23;8.65;;;12.20;99.90;;;;;;5052978;28;20101;-78
2022/09/11 04:05:07;;;;;;;11.82;7.53;;;12.20;99.90;;;;;;5053416;28;20504;-78
2022/09/11 04:07:33;;;;;;;13.07;8.10;;;12.10;99.90;;;;;;5071308;28;20442;-78
2022/09/11 04:09:59;;;;;;;10.93;7.93;;;12.10;99.90;;;;;;5071292;28;20036;-78
2022/09/11 04:12:25;;;;;;;12.43;8.57;;;12.10;99.90;;;;;;5069630;28;20036;-78
2022/09/11 04:14:51;;;;;;;13.23;9.43;;;12.00;99.90;;;;;;5071047;28;20040;-78
2022/09/11 04:17:17;;;;;;;12.63;9.20;;;12.10;99.90;;;;;;5070130;28;20044;-78
2022/09/11 04:19:43;;;;;;;11.50;8.02;;;12.10;99.90;;;;;;5069798;28;20150;-79
2022/09/11 04:22:09;;;;;;;13.02;8.65;;;12.10;99.90;;;;;;5071485;28;20063;-79
2022/09/11 04:24:34;;;;;;;12.40;8.00;;;12.20;99.90;;;;;;5071811;28;20116;-79
2022/09/11 04:27:00;;;;;;;13.20;8.77;;;12.20;99.90;;;;;;5070349;28;20036;-79
2022/09/11 04:29:26;;;;;;;11.98;8.52;;;12.10;99.90;;;;;;5070495;28;20171;-79
2022/09/11 04:31:52;;;;;;;11.35;8.25;;;12.30;99.90;;;;;;5072150;28;20033;-79
2022/09/11 04:34:18;;;;;;;12.80;8.82;;;12.20;99.90;;;;;;5053889;28;20055;-79
2022/09/11 04:36:44;;;;;;;12.73;8.82;;;12.20;99.90;;;;;;5071089;28;20044;-79
2022/09/11 04:39:10;;;;;;;13.85;8.75;;;12.10;99.90;;;;;;5071317;28;20036;-79
2022/09/11 04:41:36;;;;;;;12.30;9.07;;;12.10;99.90;;;;;;5070747;28;20473;-79
2022/09/11 04:44:02;;;;;;;14.35;9.10;;;12.00;99.90;;;;;;5073637;28;20068;-79
2022/09/11 04:46:28;;;;;;;13.52;9.38;;;12.10;99.90;;;;;;5074577;28;20043;-79
2022/09/11 04:48:58;;;;;;;13.57;9.25;;;12.00;99.90;;;;;;5074859;28;20036;-79
2022/09/11 04:51:35;;;;;;;13.20;9.02;;;12.10;99.90;;;;;;5073084;28;20090;-79
2022/09/11 04:54:02;;;;;;;12.18;8.57;;;12.10;99.90;;;;;;5073545;28;20496;-79
2022/09/11 04:56:33;;;;;;;12.73;8.38;;;12.10;99.90;;;;;;5074554;28;20568;-79
2022/09/11 04:59:18;;;;;;;12.52;8.27;;;12.00;99.90;;;;;;5074551;28;20059;-79
2022/09/11 05:01:45;;;;;;;9.80;7.07;;;12.10;99.90;;;;;;5073126;28;20059;-79
2022/09/11 05:04:11;;;;;;;10.95;7.70;;;12.00;99.90;;;;;;5074334;28;20497;-78
2022/09/11 05:06:38;;;;;;;13.75;9.10;;;12.00;99.90;;;;;;5074355;28;20083;-79
2022/09/11 05:09:05;;;;;;;12.50;8.60;;;12.00;99.90;;;;;;5073076;28;20048;-79
2022/09/11 05:11:32;;;;;;;12.23;8.82;;;11.90;99.90;;;;;;5073065;28;20387;-79
2022/09/11 05:13:58;;;;;;;14.05;8.45;;;11.90;99.90;;;;;;5074314;28;20044;-78
2022/09/11 05:16:26;;;;;;;10.73;8.35;;;11.90;99.90;;;;;;5056758;28;20484;-78
2022/09/11 05:18:52;;;;;;;11.77;8.35;;;11.90;99.90;;;;;;5074582;28;20115;-79
2022/09/11 05:21:23;;;;;;;11.75;8.18;;;12.00;99.90;;;;;;5072805;28;20045;-79
2022/09/11 05:23:51;;;;;;;12.30;7.50;;;11.90;99.90;;;;;;5074180;28;20048;-79
2022/09/11 05:26:19;;;;;;;11.13;7.90;;;11.90;99.90;;;;;;5073182;28;20044;-78
2022/09/11 05:28:45;;;;;;;11.95;8.30;;;12.00;99.90;;;;;;5057134;28;20717;-78
2022/09/11 05:31:14;;;;;;;12.25;8.23;;;12.00;99.90;;;;;;5056632;28;20052;-79
2022/09/11 05:33:40;;;;;;;12.63;8.88;;;12.00;99.90;;;;;;5098336;28;20036;-79
2022/09/11 05:36:06;;;;;;;13.27;9.43;;;12.10;99.90;;;;;;5100984;28;20091;-79
2022/09/11 05:38:35;;;;;;;16.60;10.73;;;12.10;99.90;;;;;;5083674;28;20040;-80
2022/09/11 05:41:01;;;;;;;14.27;9.27;;;12.20;99.90;;;;;;5100764;28;20048;-80
2022/09/11 05:43:27;;;;;;;12.95;8.80;;;12.20;99.90;;;;;;5099963;28;20025;-80
2022/09/11 05:45:55;;;;;;;13.93;8.63;;;12.20;99.90;;;;;;5100610;28;20035;-80
2022/09/11 05:48:20;;;;;;;11.88;8.65;;;12.30;99.90;;;;;;5099050;28;20021;-81
2022/09/11 05:51:00;;;;;;;12.55;8.55;;;12.40;99.90;;;;;;5095323;28;20033;-80
2022/09/11 05:53:28;;;;;;;10.85;8.13;;;12.40;99.90;;;;;;5082943;28;20079;-79
2022/09/11 05:55:54;;;;;;;10.10;8.02;;;12.40;99.90;;;;;;5089515;28;20052;-78
2022/09/11 05:58:20;;;;;;;10.70;8.52;;;12.50;99.90;;;;;;5089564;28;20091;-79
2022/09/11 06:00:47;;;;;;;10.77;8.38;;;12.50;99.90;;;;;;5093724;28;20052;-79
2022/09/11 06:03:14;;;;;;;13.35;8.73;;;12.50;99.90;;;;;;5075220;28;20056;-79
2022/09/11 06:05:40;;;;;;;11.73;8.02;;;12.50;99.90;;;;;;5097508;28;20036;-79
2022/09/11 06:08:10;;;;;;;10.98;7.75;;;12.60;99.90;;;;;;5082461;28;20519;-79
2022/09/11 06:10:45;;;;;;;14.95;9.55;;;12.70;99.90;;;;;;5073454;28;20043;-79
2022/09/11 06:13:11;;;;;;;10.93;8.55;;;12.70;99.90;;;;;;5055763;28;20047;-78
2022/09/11 06:15:43;;;;;;;11.68;9.02;;;12.80;99.90;;;;;;5072722;28;20040;-78
2022/09/11 06:18:09;;;;;;;11.38;8.48;;;12.80;99.90;;;;;;5072183;28;20047;-78
2022/09/11 06:20:34;;;;;;;11.88;9.02;;;12.90;99.90;;;;;;5073333;28;20123;-78
2022/09/11 06:23:00;;;;;;;11.00;8.70;;;12.90;99.90;;;;;;5071656;28;20155;-78
2022/09/11 06:25:26;;;;;;;12.77;9.32;;;13.00;99.90;;;;;;5071901;28;20090;-78
2022/09/11 06:27:51;;;;;;;10.63;8.60;;;13.00;99.90;;;;;;5071738;28;20136;-77
2022/09/11 06:30:17;;;;;;;10.35;8.45;;;13.10;99.90;;;;;;5072787;28;20048;-77
2022/09/11 06:32:42;;;;;;;11.80;8.50;;;13.20;99.90;;;;;;5072173;28;20516;-78
2022/09/11 06:35:09;;;;;;;11.35;8.48;;;13.30;99.90;;;;;;5072787;28;20503;-77
2022/09/11 06:37:35;;;;;;;11.98;8.90;;;13.30;99.90;;;;;;5072786;28;20052;-78
2022/09/11 06:40:01;;;;;;;10.95;8.57;;;13.40;99.90;;;;;;5071533;28;20048;-78
2022/09/11 06:42:27;;;;;;;11.75;9.50;;;13.60;99.90;;;;;;5074005;28;20047;-78
2022/09/11 06:44:53;;;;;;;11.68;9.10;;;13.70;99.90;;;;;;5054583;28;20040;-78
2022/09/11 06:47:19;;;;;;;12.85;9.35;;;13.70;99.90;;;;;;5072359;28;20041;-78
2022/09/11 06:49:45;;;;;;;14.82;9.07;;;13.80;99.90;;;;;;5071452;28;20033;-78
2022/09/11 06:52:11;;;;;;;12.23;9.00;;;13.90;99.90;;;;;;5070869;28;20052;-78
2022/09/11 06:54:36;;;;;;;14.00;9.95;;;13.90;99.90;;;;;;5054930;28;20036;-78
2022/09/11 06:57:02;;;;;;;12.68;9.15;;;13.90;99.90;;;;;;5072378;28;20044;-78
2022/09/11 06:59:28;;;;;;;15.00;10.00;;;14.00;99.90;;;;;;5073335;28;20037;-78
2022/09/11 07:01:54;;;;;;;15.60;10.27;;;14.10;99.90;;;;;;5071257;28;20125;-77
2022/09/11 07:04:22;;;;;;;15.20;9.80;;;14.30;99.90;;;;;;5072648;28;20102;-78
2022/09/11 07:06:48;;;;;;;14.75;9.95;;;14.30;99.90;;;;;;5054589;28;20047;-77
2022/09/11 07:09:14;;;;;;;17.95;10.73;;;14.40;99.90;;;;;;5054364;28;20046;-78
2022/09/11 07:11:42;;;;;;;16.08;10.50;;;14.60;99.90;;;;;;5070704;28;20405;-77
2022/09/11 07:14:08;;;;;;;13.27;10.50;;;15.20;99.90;;;;;;5071048;28;20400;-77
2022/09/11 07:16:34;;;;;;;15.00;10.60;;;15.80;99.90;;;;;;5070754;28;20036;-78
2022/09/11 07:19:00;;;;;;;12.98;9.60;;;16.60;99.90;;;;;;5072345;28;20093;-77
2022/09/11 07:21:26;;;;;;;11.55;8.60;;;17.20;99.90;;;;;;5054015;28;20113;-77
2022/09/11 07:23:56;;;;;;;15.32;9.68;;;17.80;99.90;;;;;;5070666;28;20082;-78
2022/09/11 07:26:27;;;;;;;13.15;9.68;;;18.40;99.90;;;;;;5071015;28;20444;-78
2022/09/11 07:28:54;;;;;;;9.52;8.52;;;18.80;99.90;;;;;;5055405;28;20094;-82
2022/09/11 07:31:28;;;;;;;10.70;8.05;;;19.20;99.90;;;;;;5054535;28;20083;-83
2022/09/11 07:33:54;;;;;;;11.90;8.55;;;19.60;99.90;;;;;;5072697;28;20463;-82
2022/09/11 07:36:26;;;;;;;11.38;8.32;;;20.00;99.90;;;;;;5054452;28;20036;-82
2022/09/11 07:38:52;;;;;;;;;;;20.30;99.90;;;;;;5054443;28;20049;-82
2022/09/11 07:41:22;;;;;;;8.77;7.22;;;20.50;99.90;;;;;;5070606;28;20391;-82
2022/09/11 07:43:53;;;;;;;9.50;7.95;;;20.80;99.90;;;;;;5070849;28;20036;-82
2022/09/11 07:46:18;;;;;;;8.23;7.43;;;21.10;99.90;;;;;;5070874;28;20036;-82
2022/09/11 07:48:44;;;;;;;8.95;8.05;;;21.40;99.90;;;;;;5055412;28;20135;-82
2022/09/11 07:51:13;;;;;;;8.52;7.47;;;21.70;99.90;;;;;;5074878;28;20045;-82
2022/09/11 07:53:44;;;;;;;8.20;7.20;;;21.80;99.90;;;;;;5073555;28;20041;-79
2022/09/11 07:56:11;;;;;;;;;;;21.90;99.90;;;;;;5071167;28;20127;-81
2022/09/11 07:58:39;;;;;;;8.98;6.35;;;22.00;99.90;;;;;;5070872;28;19923;-81
2022/09/11 08:01:07;;;;;;;9.88;7.38;;;22.40;99.90;;;;;;5070958;28;20097;-82
2022/09/11 08:03:34;;;;;;;9.25;6.57;;;22.60;99.90;;;;;;5054288;28;20056;-82
2022/09/11 08:06:02;;;;;;;10.07;7.22;;;22.80;99.90;;;;;;5053599;28;20042;-82
2022/09/11 08:08:29;;;;;;;7.30;6.43;;;22.80;99.90;;;;;;5054384;28;20040;-82
2022/09/11 08:10:56;;;;;;;7.25;6.53;;;23.00;99.90;;;;;;5055288;28;20088;-82
2022/09/11 08:13:23;;;;;;;7.43;6.50;;;23.00;99.90;;;;;;5070092;28;20036;-82
2022/09/11 08:15:49;;;;;;;6.45;5.72;;;23.00;99.90;;;;;;5053634;28;20044;-83
2022/09/11 08:18:16;;;;;;;7.50;5.97;;;23.20;99.90;;;;;;5058996;28;20055;-83
2022/09/11 08:20:41;;;;;;;10.90;6.53;;;23.40;99.90;;;;;;5079748;28;20063;-83
2022/09/11 08:23:08;;;;;;;6.88;6.18;;;23.50;99.90;;;;;;5062314;28;20131;-83
2022/09/11 08:25:38;;;;;;;6.85;5.82;;;23.50;99.90;;;;;;5074516;28;20040;-83
2022/09/11 08:28:04;;;;;;;7.18;5.68;;;23.50;99.90;;;;;;5100127;28;20054;-83
2022/09/11 08:30:31;;;;;;;9.50;6.07;;;23.60;99.90;;;;;;5083537;28;20043;-82
2022/09/11 08:32:57;;;;;;;7.28;5.82;;;23.60;99.90;;;;;;5100588;28;20028;-83
2022/09/11 08:35:23;;;;;;;6.97;5.80;;;23.70;99.90;;;;;;5100741;28;20031;-83
2022/09/11 08:37:49;;;;;;;7.65;5.38;;;23.80;99.90;;;;;;5082515;28;20035;-82
2022/09/11 08:40:15;;;;;;;8.10;5.07;;;23.80;99.90;;;;;;5082509;28;20083;-82
2022/09/11 08:42:43;;;;;;;6.05;5.25;;;23.50;99.90;;;;;;5066616;28;20048;-83
2022/09/11 08:45:19;;;;;;;8.43;4.40;;;23.10;99.90;;;;;;5075435;28;20037;-84
2022/09/11 08:47:52;;;;;;;6.35;4.40;;;22.60;99.90;;;;;;5076965;28;20037;-85
2022/09/11 08:50:33;;;;;;;7.47;4.40;;;22.00;99.90;;;;;;5060603;28;20392;-82
2022/09/11 08:53:01;;;;;;;5.65;4.57;;;21.50;99.90;;;;;;5075362;28;20044;-81
2022/09/11 08:55:48;;;;;;;6.15;5.13;;;21.20;99.90;;;;;;5057318;28;20043;-84
2022/09/11 08:58:49;;;;;;;5.38;3.65;;;20.90;99.90;;;;;;5073843;28;20067;-81
2022/09/11 09:01:37;;;;;;;5.07;3.93;;;20.80;99.90;;;;;;5050490;28;20140;-81
2022/09/11 09:04:26;;;;;;;5.60;4.35;;;20.80;99.90;;;;;;5074478;28;20336;-81
2022/09/11 09:07:03;;;;;;;5.38;3.72;;;21.40;99.90;;;;;;5057036;28;20056;-80
2022/09/11 09:09:37;;;;;;;5.63;3.58;;;22.10;99.90;;;;;;5075825;28;20037;-80
2022/09/11 09:12:09;;;;;;;4.93;3.75;;;22.80;99.90;;;;;;5073661;28;20036;-81
2022/09/11 09:14:46;;;;;;;6.15;3.13;;;23.10;99.90;;;;;;5074076;28;20500;-81
2022/09/11 09:17:19;;;;;;;3.30;2.83;;;22.90;99.90;;;;;;5073595;28;20032;-81
2022/09/11 09:20:08;;;;;;;5.55;3.10;;;22.60;99.90;;;;;;5073632;28;20128;-80
2022/09/11 09:22:42;;;;;;;5.38;2.88;;;22.10;99.90;;;;;;5073153;28;20044;-81
2022/09/11 09:25:13;;;;;;;3.30;2.58;;;21.60;99.90;;;;;;5072940;28;20036;-82
2022/09/11 09:27:47;;;;;;;3.63;2.25;;;21.40;99.90;;;;;;5055769;28;20086;-82
2022/09/11 09:30:20;;;;;;;7.32;2.63;;;21.10;99.90;;;;;;5055800;28;20051;-82
2022/09/11 09:33:26;;;;;;;5.07;3.72;;;21.00;99.90;;;;;;5055507;28;20041;-83
2022/09/11 09:35:53;;;;;;;6.00;3.35;;;20.90;99.90;;;;;;5072566;28;20036;-82
2022/09/11 09:38:27;;;;;;;6.28;4.03;;;20.80;99.90;;;;;;5056606;28;20140;-82
2022/09/11 09:41:13;;;;;;;8.73;4.10;;;20.70;99.90;;;;;;5072629;28;20382;-82
2022/09/11 09:43:46;;;;;;;6.22;3.67;;;20.50;99.90;;;;;;5072301;28;20036;-82
2022/09/11 09:46:26;;;;;;;6.05;3.50;;;20.30;99.90;;;;;;5055311;28;20044;-82
2022/09/11 09:48:52;;;;;;;5.00;3.42;;;20.30;99.90;;;;;;5055955;28;20048;-82
2022/09/11 09:51:17;;;;;;;6.78;3.60;;;20.50;99.90;;;;;;5055415;28;20036;-82
2022/09/11 09:53:55;;;;;;;7.43;2.55;;;20.90;99.90;;;;;;5072496;28;20484;-82
2022/09/11 09:56:22;;;;;;;5.07;2.30;;;21.80;99.90;;;;;;5073377;28;20040;-82
2022/09/11 09:59:17;;;;;;;3.78;2.15;;;22.40;99.90;;;;;;5072267;28;20044;-82
2022/09/11 10:01:50;;;;;;;4.47;2.33;;;23.10;99.90;;;;;;5071896;28;20080;-83
2022/09/11 10:04:28;;;;;;;4.63;1.80;;;23.80;99.90;;;;;;5055234;28;20123;-83
2022/09/11 10:07:13;;;;;;;4.72;1.90;;;24.40;99.90;;;;;;5071758;28;20528;-84
2022/09/11 10:09:48;;;;;;;4.07;2.30;;;24.50;99.90;;;;;;5055061;28;20040;-84
2022/09/11 10:12:34;;;;;;;3.88;1.98;;;24.70;99.90;;;;;;5055296;28;20072;-84
2022/09/11 10:15:01;;;;;;;4.70;2.63;;;24.80;99.90;;;;;;5071933;28;20051;-83
2022/09/11 10:17:28;;;;;;;6.65;2.17;;;24.80;99.90;;;;;;5055302;28;20071;-84
2022/09/11 10:19:56;;;;;;;3.45;1.75;;;24.50;99.90;;;;;;5071768;28;20112;-83
2022/09/11 10:22:28;;;;;;;2.80;2.13;;;24.40;99.90;;;;;;5081770;28;20025;-84
2022/09/11 10:25:03;;;;;;;4.03;1.90;;;24.30;99.90;;;;;;5097876;28;20052;-84
2022/09/11 10:27:34;;;;;;;6.60;2.50;;;24.20;99.90;;;;;;5094639;28;20056;-82
2022/09/11 10:30:02;;;;;;;4.55;2.40;;;24.00;99.90;;;;;;5081032;28;20040;-83
2022/09/11 10:32:28;;;;;;;4.85;2.45;;;23.70;99.90;;;;;;5054949;28;20441;-81
2022/09/11 10:34:55;;;;;;;6.00;2.95;;;23.40;99.90;;;;;;5055024;28;20036;-83
2022/09/11 10:37:26;;;;;;;5.63;2.13;;;23.10;99.90;;;;;;5071727;28;20041;-82
2022/09/11 10:39:54;;;;;;;2.72;1.98;;;22.80;99.90;;;;;;5055598;28;20099;-83
2022/09/11 10:42:30;;;;;;;4.60;2.03;;;22.40;99.90;;;;;;5072162;28;20095;-83
2022/09/11 10:45:23;;;;;;;4.78;2.08;;;22.10;99.90;;;;;;5071867;28;20131;-81
2022/09/11 10:47:49;;;;;;;3.10;2.30;;;21.90;99.90;;;;;;5055968;28;20126;-82
2022/09/11 10:50:25;;;;;;;4.50;1.85;;;21.80;99.90;;;;;;5055663;28;20080;-82
2022/09/11 10:52:57;;;;;;;4.60;1.90;;;21.70;99.90;;;;;;5071662;28;20055;-82
2022/09/11 10:55:24;;;;;;;;;;;21.80;99.90;;;;;;5055484;28;20465;-82
2022/09/11 10:57:58;;;;;;;2.80;1.95;;;21.90;99.90;;;;;;5055108;28;20011;-83
2022/09/11 11:00:30;;;;;;;4.13;1.88;;;22.10;99.90;;;;;;5055681;28;20362;-81
2022/09/11 11:03:16;;;;;;;2.88;1.85;;;22.50;99.90;;;;;;5054647;28;20051;-82
2022/09/11 11:06:00;;;;;;;3.88;1.50;;;22.80;99.90;;;;;;5055425;28;20052;-81
2022/09/11 11:08:47;;;;;;;2.08;1.40;;;23.00;99.90;;;;;;5055834;28;20052;-82
2022/09/11 11:11:13;;;;;;;4.03;1.50;;;23.30;99.90;;;;;;5072213;28;20110;-84
2022/09/11 11:14:00;;;;;;;2.85;1.20;;;23.50;99.90;;;;;;5070903;28;20112;-84
2022/09/11 11:17:17;;;;;;;3.80;1.80;;;23.70;99.90;;;;;;5070463;28;20087;-84
2022/09/11 11:20:13;;;;;;;5.18;1.73;;;23.60;99.90;;;;;;5054314;28;20094;-84
2022/09/11 11:23:17;;;;;;;2.55;1.73;;;23.60;99.90;;;;;;5053531;28;20670;-83
2022/09/11 11:26:02;;;;;;;3.45;1.73;;;23.50;99.90;;;;;;5054024;28;20496;-83
2022/09/11 11:29:00;;;;;;;3.83;1.70;;;23.50;99.90;;;;;;5070396;28;20048;-84
2022/09/11 11:32:02;;;;;;;5.07;1.83;;;23.40;99.90;;;;;;5029050;28;20045;-84
2022/09/11 11:34:54;;;;;;;2.17;1.38;;;23.50;99.90;;;;;;5054245;28;20391;-84
2022/09/11 11:37:28;;;;;;;1.75;1.23;;;23.60;99.90;;;;;;5053935;28;20044;-85
2022/09/11 11:40:05;;;;;;;4.25;1.45;;;23.70;99.90;;;;;;5053772;28;20044;-84
2022/09/11 11:42:49;;;;;;;6.00;1.42;;;23.90;99.90;;;;;;5053895;28;20087;-84
2022/09/11 11:45:24;;;;;;;2.58;1.33;;;24.10;99.90;;;;;;5053550;28;20075;-83
2022/09/11 11:47:52;;;;;;;1.80;1.02;;;24.20;99.90;;;;;;5070704;28;20484;-83
2022/09/11 11:50:24;;;;;;;1.30;0.95;;;24.40;99.90;;;;;;5053680;28;20037;-83
2022/09/11 11:52:58;;;;;;;;;;;24.40;99.90;;;;;;5070340;28;20047;-83
2022/09/11 11:55:44;;;;;;;1.50;0.75;;;24.50;99.90;;;;;;5054649;28;19927;-83
2022/09/11 11:58:37;;;;;;;1.58;1.15;;;24.90;99.90;;;;;;5054315;28;20052;-83
2022/09/11 12:01:08;;;;;;;1.60;1.00;;;25.00;96.50;;;;;;5053739;28;20044;-83
2022/09/11 12:03:41;;;;;;;2.28;1.13;;;25.00;99.90;;;;;;5069883;28;20386;-83
2022/09/11 12:06:07;;;;;;;3.08;0.90;;;25.00;99.90;;;;;;5070087;28;20389;-82
2022/09/11 12:08:47;;;;;;;4.10;1.30;;;25.10;99.90;;;;;;5055422;28;20040;-79
2022/09/11 12:11:17;;;;;;;2.50;1.37;;;25.00;99.90;;;;;;5053878;28;20040;-80
2022/09/11 12:13:45;;;;;;;2.88;1.05;;;24.70;99.90;;;;;;5070563;28;20093;-80
2022/09/11 12:16:23;;;;;;;1.85;0.93;;;24.50;99.90;;;;;;5071175;28;20090;-77
2022/09/11 12:19:16;;;;;;;4.28;1.42;;;24.40;99.90;;;;;;5070122;28;20044;-78
2022/09/11 12:22:09;;;;;;;6.00;1.50;;;24.30;99.90;;;;;;5053432;28;20052;-80
2022/09/11 12:24:49;;;;;;;1.27;1.08;;;24.30;99.90;;;;;;5053102;28;20094;-79
2022/09/11 12:27:32;;;;;;;1.90;0.90;;;24.20;99.90;;;;;;5069799;28;20052;-79
2022/09/11 12:30:15;;;;;;;2.42;1.10;;;24.30;99.90;;;;;;5070082;28;20047;-80
2022/09/11 12:32:45;;;;;;;4.07;1.35;;;24.50;99.90;;;;;;5069499;28;20033;-79
2022/09/11 12:35:31;;;;;;;2.92;1.10;;;24.60;99.90;;;;;;5069929;28;20040;-79
2022/09/11 12:38:13;;;;;;;2.70;1.23;;;24.70;99.90;;;;;;5070113;28;20151;-80
2022/09/11 12:40:49;;;;;;;3.03;1.25;;;24.70;99.90;;;;;;5069706;28;20041;-79
2022/09/11 12:43:34;;;;;;;4.20;1.48;;;24.80;99.90;;;;;;5069227;28;20076;-79
2022/09/11 12:46:02;;;;;;;1.67;1.00;;;24.80;99.90;;;;;;5069552;28;20098;-78
2022/09/11 12:48:37;;;;;;;2.15;1.00;;;24.70;99.90;;;;;;5069946;28;20060;-78
2022/09/11 12:51:04;;;;;;;1.50;0.90;;;24.60;99.90;;;;;;5053059;28;20033;-78
2022/09/11 12:53:34;;;;;;;1.67;1.00;;;24.70;99.90;;;;;;5052393;28;20451;-78
2022/09/11 12:56:03;;;;;;;1.77;0.95;;;25.00;99.90;;;;;;5052583;28;20048;-79
2022/09/11 12:58:32;;;;;;;3.72;1.30;;;25.20;99.90;;;;;;5069913;28;20080;-80
2022/09/11 13:01:22;;;;;;;2.67;1.10;;;25.40;99.10;;;;;;5069428;28;20057;-80
2022/09/11 13:04:09;;;;;;;2.10;1.10;;;25.60;98.40;;;;;;5056078;28;20043;-80
2022/09/11 13:06:53;;;;;;;3.40;1.20;;;25.50;94.70;;;;;;5073289;28;20044;-79